sensor_id;sensor_type;location;lat;lon;timestamp;pressure;altitude;pressure_sealevel;temperature;humidity
41312;BME280;27061;41.648;24.568;2022-12-18T00:01:15;86398.19;;;10.30;75.65
41312;BME280;27061;41.648;24.568;2022-12-18T00:03:43;86399.56;;;10.37;75.29
41312;BME280;27061;41.648;24.568;2022-12-18T00:06:13;86360.88;;;10.04;74.75
41312;BME280;27061;41.648;24.568;2022-12-18T00:08:42;86409.22;;;10.46;74.89
41312;BME280;27061;41.648;24.568;2022-12-18T00:11:14;86391.25;;;10.28;74.52
41312;BME280;27061;41.648;24.568;2022-12-18T00:13:42;86376.72;;;10.28;73.57
41312;BME280;27061;41.648;24.568;2022-12-18T00:16:18;86396.75;;;10.43;73.67
41312;BME280;27061;41.648;24.568;2022-12-18T00:18:49;86423.06;;;10.42;74.02
41312;BME280;27061;41.648;24.568;2022-12-18T00:21:17;86426.53;;;10.38;74.30
41312;BME280;27061;41.648;24.568;2022-12-18T00:23:45;86378.84;;;10.09;73.86
41312;BME280;27061;41.648;24.568;2022-12-18T00:26:15;86421.66;;;10.41;73.13
41312;BME280;27061;41.648;24.568;2022-12-18T00:28:44;86393.34;;;10.28;72.57
41312;BME280;27061;41.648;24.568;2022-12-18T00:31:16;86387.84;;;10.20;72.21
41312;BME280;27061;41.648;24.568;2022-12-18T00:33:44;86403.72;;;10.17;72.54
41312;BME280;27061;41.648;24.568;2022-12-18T00:36:38;86412.03;;;10.13;72.64
41312;BME280;27061;41.648;24.568;2022-12-18T00:39:05;86419.66;;;10.13;72.58
41312;BME280;27061;41.648;24.568;2022-12-18T00:41:32;86431.41;;;10.15;72.51
41312;BME280;27061;41.648;24.568;2022-12-18T00:44:18;86378.91;;;9.77;72.18
41312;BME280;27061;41.648;24.568;2022-12-18T00:46:46;86413.47;;;9.94;71.85
41312;BME280;27061;41.648;24.568;2022-12-18T00:49:16;86405.16;;;9.86;71.73
41312;BME280;27061;41.648;24.568;2022-12-18T00:51:43;86388.63;;;9.72;70.39
41312;BME280;27061;41.648;24.568;2022-12-18T00:54:11;86431.44;;;9.99;70.49
41312;BME280;27061;41.648;24.568;2022-12-18T00:56:38;86423.16;;;9.93;69.96
41312;BME280;27061;41.648;24.568;2022-12-18T00:59:15;86392.09;;;9.62;70.34
41312;BME280;27061;41.648;24.568;2022-12-18T01:01:42;86442.50;;;9.99;69.60
41312;BME280;27061;41.648;24.568;2022-12-18T01:04:09;86439.72;;;10.03;69.59
41312;BME280;27061;41.648;24.568;2022-12-18T01:06:36;86441.09;;;9.98;69.44
41312;BME280;27061;41.648;24.568;2022-12-18T01:09:03;86446.66;;;9.94;69.51
41312;BME280;27061;41.648;24.568;2022-12-18T01:11:31;86401.06;;;9.57;69.71
41312;BME280;27061;41.648;24.568;2022-12-18T01:13:58;86445.28;;;9.89;69.90
41312;BME280;27061;41.648;24.568;2022-12-18T01:16:28;86417.66;;;9.73;69.88
41312;BME280;27061;41.648;24.568;2022-12-18T01:18:55;86437.66;;;9.91;69.85
41312;BME280;27061;41.648;24.568;2022-12-18T01:21:23;86345.81;;;9.24;69.68
41312;BME280;27061;41.648;24.568;2022-12-18T01:23:52;86432.84;;;9.76;69.98
41312;BME280;27061;41.648;24.568;2022-12-18T01:26:22;86431.44;;;9.75;70.36
41312;BME280;27061;41.648;24.568;2022-12-18T01:28:50;86388.63;;;9.47;69.86
41312;BME280;27061;41.648;24.568;2022-12-18T01:31:23;86435.59;;;9.78;70.09
41312;BME280;27061;41.648;24.568;2022-12-18T01:33:52;86434.25;;;9.73;70.25
41312;BME280;27061;41.648;24.568;2022-12-18T01:36:24;86385.16;;;9.33;70.58
41312;BME280;27061;41.648;24.568;2022-12-18T01:38:52;86430.09;;;9.72;70.16
41312;BME280;27061;41.648;24.568;2022-12-18T01:41:22;86433.56;;;9.62;70.86
41312;BME280;27061;41.648;24.568;2022-12-18T01:43:56;86407.97;;;9.51;70.50
41312;BME280;27061;41.648;24.568;2022-12-18T01:46:25;86385.88;;;9.33;70.76
41312;BME280;27061;41.648;24.568;2022-12-18T01:49:20;86425.25;;;9.56;71.09
41312;BME280;27061;41.648;24.568;2022-12-18T01:51:47;86388.63;;;9.25;71.15
41312;BME280;27061;41.648;24.568;2022-12-18T01:54:14;86394.84;;;9.30;71.21
41312;BME280;27061;41.648;24.568;2022-12-18T01:56:41;86352.72;;;8.99;71.04
41312;BME280;27061;41.648;24.568;2022-12-18T01:59:10;86349.94;;;8.95;71.25
41312;BME280;27061;41.648;24.568;2022-12-18T02:01:38;86437.00;;;9.59;71.04
41312;BME280;27061;41.648;24.568;2022-12-18T02:04:22;86435.63;;;9.58;70.78
41312;BME280;27061;41.648;24.568;2022-12-18T02:06:55;86430.09;;;9.58;70.58
41312;BME280;27061;41.648;24.568;2022-12-18T02:09:39;86390.03;;;9.20;70.25
41312;BME280;27061;41.648;24.568;2022-12-18T02:12:16;86420.41;;;9.52;70.24
41312;BME280;27061;41.648;24.568;2022-12-18T02:15:00;86432.16;;;9.55;70.28
41312;BME280;27061;41.648;24.568;2022-12-18T02:28:21;86401.75;;;9.29;69.27
41312;BME280;27061;41.648;24.568;2022-12-18T02:30:53;86374.81;;;9.05;69.14
41312;BME280;27061;41.648;24.568;2022-12-18T02:33:25;86407.97;;;9.37;69.41
41312;BME280;27061;41.648;24.568;2022-12-18T02:35:56;86407.28;;;9.29;68.68
41312;BME280;27061;41.648;24.568;2022-12-18T02:38:25;86424.56;;;9.41;69.25
41312;BME280;27061;41.648;24.568;2022-12-18T02:40:56;86413.50;;;9.35;69.10
41312;BME280;27061;41.648;24.568;2022-12-18T02:43:24;86370.66;;;9.02;69.20
41312;BME280;27061;41.648;24.568;2022-12-18T02:45:57;86198.72;;;7.78;68.26
41312;BME280;27061;41.648;24.568;2022-12-18T02:48:33;86428.69;;;9.34;68.73
41312;BME280;27061;41.648;24.568;2022-12-18T02:51:17;86416.97;;;9.28;69.25
41312;BME280;27061;41.648;24.568;2022-12-18T02:53:59;86386.53;;;9.03;69.46
41312;BME280;27061;41.648;24.568;2022-12-18T02:56:38;86376.16;;;8.84;69.26
41312;BME280;27061;41.648;24.568;2022-12-18T02:59:14;86430.09;;;9.29;69.28
41312;BME280;27061;41.648;24.568;2022-12-18T03:02:10;86436.97;;;9.26;69.37
41312;BME280;27061;41.648;24.568;2022-12-18T03:04:51;86388.59;;;8.91;69.57
41312;BME280;27061;41.648;24.568;2022-12-18T03:07:36;86391.38;;;8.93;69.29
41312;BME280;27061;41.648;24.568;2022-12-18T03:10:11;86436.97;;;9.18;68.90
41312;BME280;27061;41.648;24.568;2022-12-18T03:12:51;86435.59;;;9.21;69.20
41312;BME280;27061;41.648;24.568;2022-12-18T03:15:24;86443.88;;;9.19;69.59
41312;BME280;27061;41.648;24.568;2022-12-18T03:18:06;86422.41;;;8.79;70.03
41312;BME280;27061;41.648;24.568;2022-12-18T03:20:37;86402.38;;;8.72;70.22
41312;BME280;27061;41.648;24.568;2022-12-18T03:23:11;86398.94;;;8.80;68.70
41312;BME280;27061;41.648;24.568;2022-12-18T03:25:45;86440.41;;;8.96;68.65
41312;BME280;27061;41.648;24.568;2022-12-18T03:28:16;86371.97;;;8.58;69.40
41312;BME280;27061;41.648;24.568;2022-12-18T03:30:56;86440.41;;;9.06;69.38
41312;BME280;27061;41.648;24.568;2022-12-18T03:33:28;86447.28;;;8.93;70.21
41312;BME280;27061;41.648;24.568;2022-12-18T03:35:57;86438.97;;;8.83;70.26
41312;BME280;27061;41.648;24.568;2022-12-18T03:38:24;86391.94;;;8.49;70.02
41312;BME280;27061;41.648;24.568;2022-12-18T03:44:10;86452.13;;;8.89;69.91
41312;BME280;27061;41.648;24.568;2022-12-18T03:46:33;86457.63;;;8.89;69.91
41312;BME280;27061;41.648;24.568;2022-12-18T03:49:26;86453.47;;;8.86;70.15
41312;BME280;27061;41.648;24.568;2022-12-18T03:52:04;86443.03;;;8.54;70.50
41312;BME280;27061;41.648;24.568;2022-12-18T03:54:43;86467.94;;;8.74;70.75
41312;BME280;27061;41.648;24.568;2022-12-18T03:57:19;86464.53;;;8.84;69.25
41312;BME280;27061;41.648;24.568;2022-12-18T03:59:54;86438.22;;;8.58;69.61
41312;BME280;27061;41.648;24.568;2022-12-18T04:02:27;86414.69;;;8.37;69.44
41312;BME280;27061;41.648;24.568;2022-12-18T04:05:01;86465.16;;;8.66;69.58
41312;BME280;27061;41.648;24.568;2022-12-18T04:07:30;86461.69;;;8.61;69.81
41312;BME280;27061;41.648;24.568;2022-12-18T04:09:58;86455.47;;;8.55;70.06
41312;BME280;27061;41.648;24.568;2022-12-18T04:12:30;86474.09;;;8.60;70.47
41312;BME280;27061;41.648;24.568;2022-12-18T04:14:57;86470.63;;;8.54;71.02
41312;BME280;27061;41.648;24.568;2022-12-18T04:17:24;86483.75;;;8.55;70.85
41312;BME280;27061;41.648;24.568;2022-12-18T04:19:51;86478.22;;;8.59;70.95
41312;BME280;27061;41.648;24.568;2022-12-18T04:22:19;86433.88;;;8.19;71.19
41312;BME280;27061;41.648;24.568;2022-12-18T04:24:50;86463.69;;;8.40;71.18
41312;BME280;27061;41.648;24.568;2022-12-18T04:27:26;86442.22;;;8.25;71.17
41312;BME280;27061;41.648;24.568;2022-12-18T04:29:54;86478.88;;;8.50;71.14
41312;BME280;27061;41.648;24.568;2022-12-18T04:32:20;86449.81;;;8.26;70.92
41312;BME280;27061;41.648;24.568;2022-12-18T04:34:48;86460.16;;;8.26;71.18
41312;BME280;27061;41.648;24.568;2022-12-18T04:37:15;86489.25;;;8.47;71.36
41312;BME280;27061;41.648;24.568;2022-12-18T04:39:43;86485.78;;;8.49;70.85
41312;BME280;27061;41.648;24.568;2022-12-18T04:42:18;86458.72;;;8.21;70.95
41312;BME280;27061;41.648;24.568;2022-12-18T04:44:45;86439.31;;;8.00;71.06
41312;BME280;27061;41.648;24.568;2022-12-18T04:47:12;86452.47;;;8.12;70.51
41312;BME280;27061;41.648;24.568;2022-12-18T04:49:39;86465.63;;;8.16;70.37
41312;BME280;27061;41.648;24.568;2022-12-18T04:52:06;86508.53;;;8.49;69.74
41312;BME280;27061;41.648;24.568;2022-12-18T04:54:36;86518.19;;;8.44;69.91
41312;BME280;27061;41.648;24.568;2022-12-18T04:57:03;86444.78;;;7.88;69.97
41312;BME280;27061;41.648;24.568;2022-12-18T04:59:30;86468.31;;;8.07;69.93
41312;BME280;27061;41.648;24.568;2022-12-18T05:01:57;86495.97;;;8.20;69.73
41312;BME280;27061;41.648;24.568;2022-12-18T05:04:24;86473.81;;;8.03;70.08
41312;BME280;27061;41.648;24.568;2022-12-18T05:06:51;86508.34;;;8.17;70.15
41312;BME280;27061;41.648;24.568;2022-12-18T05:09:43;86534.03;;;8.41;69.91
41312;BME280;27061;41.648;24.568;2022-12-18T05:12:10;86502.88;;;8.21;69.63
41312;BME280;27061;41.648;24.568;2022-12-18T05:14:37;86515.97;;;8.20;69.69
41312;BME280;27061;41.648;24.568;2022-12-18T05:17:04;86545.06;;;8.39;70.08
41312;BME280;27061;41.648;24.568;2022-12-18T05:19:31;86511.75;;;8.05;70.23
41312;BME280;27061;41.648;24.568;2022-12-18T05:21:58;86534.63;;;8.30;70.17
41312;BME280;27061;41.648;24.568;2022-12-18T05:24:25;86509.66;;;8.01;70.46
41312;BME280;27061;41.648;24.568;2022-12-18T05:26:52;86553.31;;;8.33;70.50
41312;BME280;27061;41.648;24.568;2022-12-18T05:29:19;86554.00;;;8.34;70.41
41312;BME280;27061;41.648;24.568;2022-12-18T05:31:46;86524.16;;;8.08;70.54
41312;BME280;27061;41.648;24.568;2022-12-18T05:34:13;86549.78;;;8.29;70.68
41312;BME280;27061;41.648;24.568;2022-12-18T05:36:40;86558.09;;;8.31;70.69
41312;BME280;27061;41.648;24.568;2022-12-18T05:39:07;86516.50;;;7.96;70.18
41312;BME280;27061;41.648;24.568;2022-12-18T05:41:34;86524.16;;;8.04;70.13
41312;BME280;27061;41.648;24.568;2022-12-18T05:44:01;86540.09;;;8.20;69.88
41312;BME280;27061;41.648;24.568;2022-12-18T05:46:28;86531.75;;;8.09;69.64
41312;BME280;27061;41.648;24.568;2022-12-18T05:48:59;86560.91;;;8.39;68.57
41312;BME280;27061;41.648;24.568;2022-12-18T05:51:26;86524.75;;;7.92;68.95
41312;BME280;27061;41.648;24.568;2022-12-18T05:53:53;86574.63;;;8.25;69.36
41312;BME280;27061;41.648;24.568;2022-12-18T05:56:22;86571.19;;;8.26;69.74
41312;BME280;27061;41.648;24.568;2022-12-18T05:58:53;86537.19;;;7.97;70.14
41312;BME280;27061;41.648;24.568;2022-12-18T06:01:23;86535.09;;;7.96;69.32
41312;BME280;27061;41.648;24.568;2022-12-18T06:03:50;86564.81;;;8.05;69.80
41312;BME280;27061;41.648;24.568;2022-12-18T06:06:22;86583.50;;;8.17;70.18
41312;BME280;27061;41.648;24.568;2022-12-18T06:08:51;86537.78;;;7.82;70.31
41312;BME280;27061;41.648;24.568;2022-12-18T06:11:20;86582.75;;;8.08;70.44
41312;BME280;27061;41.648;24.568;2022-12-18T06:13:53;86586.91;;;8.09;70.43
41312;BME280;27061;41.648;24.568;2022-12-18T06:16:25;86571.63;;;7.96;70.74
41312;BME280;27061;41.648;24.568;2022-12-18T06:18:52;86554.34;;;7.84;70.78
41312;BME280;27061;41.648;24.568;2022-12-18T06:21:20;86568.78;;;7.84;70.93
41312;BME280;27061;41.648;24.568;2022-12-18T06:23:47;86559.84;;;7.86;71.34
41312;BME280;27061;41.648;24.568;2022-12-18T06:26:14;86578.56;;;7.99;71.57
41312;BME280;27061;41.648;24.568;2022-12-18T06:28:41;86593.75;;;8.02;71.77
41312;BME280;27061;41.648;24.568;2022-12-18T06:31:09;86602.06;;;8.08;71.54
41312;BME280;27061;41.648;24.568;2022-12-18T06:33:37;86547.97;;;7.67;71.85
41312;BME280;27061;41.648;24.568;2022-12-18T06:36:09;86604.81;;;8.08;71.86
41312;BME280;27061;41.648;24.568;2022-12-18T06:38:40;86547.16;;;7.52;72.23
41312;BME280;27061;41.648;24.568;2022-12-18T06:41:15;86588.09;;;7.82;72.19
41312;BME280;27061;41.648;24.568;2022-12-18T06:43:43;86588.09;;;7.86;72.86
41312;BME280;27061;41.648;24.568;2022-12-18T06:46:11;86615.09;;;8.00;73.37
41312;BME280;27061;41.648;24.568;2022-12-18T06:48:39;86615.78;;;7.98;73.82
41312;BME280;27061;41.648;24.568;2022-12-18T06:51:06;86584.56;;;7.76;73.86
41312;BME280;27061;41.648;24.568;2022-12-18T06:53:34;86583.88;;;7.75;74.31
41312;BME280;27061;41.648;24.568;2022-12-18T06:56:06;86606.16;;;8.01;74.75
41312;BME280;27061;41.648;24.568;2022-12-18T06:58:40;86592.91;;;7.82;75.17
41312;BME280;27061;41.648;24.568;2022-12-18T07:01:09;86626.84;;;8.02;75.89
41312;BME280;27061;41.648;24.568;2022-12-18T07:03:38;86635.16;;;8.04;76.24
41312;BME280;27061;41.648;24.568;2022-12-18T07:06:13;86628.94;;;8.08;76.58
41312;BME280;27061;41.648;24.568;2022-12-18T07:08:41;86597.75;;;7.85;76.92
41312;BME280;27061;41.648;24.568;2022-12-18T07:11:08;86547.84;;;7.51;77.56
41312;BME280;27061;41.648;24.568;2022-12-18T07:13:35;86515.22;;;7.23;78.25
41312;BME280;27061;41.648;24.568;2022-12-18T07:16:14;86566.53;;;7.60;79.21
41312;BME280;27061;41.648;24.568;2022-12-18T07:18:50;86613.09;;;8.04;79.57
41312;BME280;27061;41.648;24.568;2022-12-18T07:21:18;86638.75;;;8.27;80.21
41312;BME280;27061;41.648;24.568;2022-12-18T07:23:46;86641.50;;;8.25;81.33
41312;BME280;27061;41.648;24.568;2022-12-18T07:26:18;86637.47;;;8.34;81.33
41312;BME280;27061;41.648;24.568;2022-12-18T07:28:45;86610.41;;;8.15;81.37
41312;BME280;27061;41.648;24.568;2022-12-18T07:31:19;86647.22;;;8.46;81.30
41312;BME280;27061;41.648;24.568;2022-12-18T07:33:47;86641.00;;;8.49;81.42
41312;BME280;27061;41.648;24.568;2022-12-18T07:36:15;86654.81;;;8.51;81.71
41312;BME280;27061;41.648;24.568;2022-12-18T07:38:42;86581.34;;;8.05;82.02
41312;BME280;27061;41.648;24.568;2022-12-18T07:41:12;86654.22;;;8.63;82.07
41312;BME280;27061;41.648;24.568;2022-12-18T07:43:40;86611.28;;;8.39;82.01
41312;BME280;27061;41.648;24.568;2022-12-18T07:46:09;86614.75;;;8.42;81.81
41312;BME280;27061;41.648;24.568;2022-12-18T07:48:40;86630.75;;;8.62;81.22
41312;BME280;27061;41.648;24.568;2022-12-18T07:51:08;86660.56;;;8.86;80.82
41312;BME280;27061;41.648;24.568;2022-12-18T07:53:35;86603.69;;;8.38;80.51
41312;BME280;27061;41.648;24.568;2022-12-18T07:56:06;86645.38;;;8.82;80.71
41312;BME280;27061;41.648;24.568;2022-12-18T07:58:54;86644.66;;;8.80;80.69
41312;BME280;27061;41.648;24.568;2022-12-18T08:01:21;86476.22;;;7.53;80.55
41312;BME280;27061;41.648;24.568;2022-12-18T08:03:49;86673.75;;;9.01;80.89
41312;BME280;27061;41.648;24.568;2022-12-18T08:06:18;86671.03;;;9.03;80.77
41312;BME280;27061;41.648;24.568;2022-12-18T08:08:51;86659.97;;;8.99;79.41
41312;BME280;27061;41.648;24.568;2022-12-18T08:11:18;86684.25;;;9.21;79.16
41312;BME280;27061;41.648;24.568;2022-12-18T08:13:47;86583.06;;;8.51;79.67
41312;BME280;27061;41.648;24.568;2022-12-18T08:16:15;86627.47;;;8.90;80.56
41312;BME280;27061;41.648;24.568;2022-12-18T08:18:42;86654.50;;;9.11;80.95
41312;BME280;27061;41.648;24.568;2022-12-18T08:21:18;86648.28;;;9.11;82.09
41312;BME280;27061;41.648;24.568;2022-12-18T08:23:47;86658.69;;;9.25;82.00
41312;BME280;27061;41.648;24.568;2022-12-18T08:26:15;86640.72;;;9.17;82.02
41312;BME280;27061;41.648;24.568;2022-12-18T08:28:42;86646.25;;;9.24;82.65
41312;BME280;27061;41.648;24.568;2022-12-18T08:31:10;86652.53;;;9.34;82.82
41312;BME280;27061;41.648;24.568;2022-12-18T08:33:38;86676.16;;;9.68;81.71
41312;BME280;27061;41.648;24.568;2022-12-18T08:36:08;86683.09;;;9.73;81.39
41312;BME280;27061;41.648;24.568;2022-12-18T08:38:35;86680.31;;;9.77;81.55
41312;BME280;27061;41.648;24.568;2022-12-18T08:41:08;86685.88;;;9.81;82.04
41312;BME280;27061;41.648;24.568;2022-12-18T08:43:35;86612.47;;;9.35;81.73
41312;BME280;27061;41.648;24.568;2022-12-18T08:46:40;86637.41;;;9.55;80.85
41312;BME280;27061;41.648;24.568;2022-12-18T08:49:08;86674.84;;;9.95;80.25
41312;BME280;27061;41.648;24.568;2022-12-18T08:51:35;86659.59;;;9.80;80.39
41312;BME280;27061;41.648;24.568;2022-12-18T08:54:03;86651.31;;;9.86;80.59
41312;BME280;27061;41.648;24.568;2022-12-18T08:56:32;86634.69;;;9.76;80.24
41312;BME280;27061;41.648;24.568;2022-12-18T08:58:59;86685.94;;;10.07;80.07
41312;BME280;27061;41.648;24.568;2022-12-18T09:01:27;86683.19;;;10.13;79.65
41312;BME280;27061;41.648;24.568;2022-12-18T09:03:54;86640.97;;;9.93;79.26
41312;BME280;27061;41.648;24.568;2022-12-18T09:06:22;86672.13;;;10.15;78.87
41312;BME280;27061;41.648;24.568;2022-12-18T09:08:50;86674.22;;;10.23;79.35
41312;BME280;27061;41.648;24.568;2022-12-18T09:11:22;86645.09;;;9.98;79.13
41312;BME280;27061;41.648;24.568;2022-12-18T09:13:50;86678.38;;;10.30;79.48
41312;BME280;27061;41.648;24.568;2022-12-18T09:16:18;86655.50;;;10.17;79.37
41312;BME280;27061;41.648;24.568;2022-12-18T09:18:46;86670.75;;;10.20;79.52
41312;BME280;27061;41.648;24.568;2022-12-18T09:21:16;86683.25;;;10.42;79.45
41312;BME280;27061;41.648;24.568;2022-12-18T09:23:43;86670.78;;;10.33;79.53
41312;BME280;27061;41.648;24.568;2022-12-18T09:26:11;86625.75;;;10.04;80.13
41312;BME280;27061;41.648;24.568;2022-12-18T09:28:38;86665.25;;;10.39;79.55
41312;BME280;27061;41.648;24.568;2022-12-18T09:31:07;86663.88;;;10.44;79.31
41312;BME280;27061;41.648;24.568;2022-12-18T09:33:35;86526.81;;;9.49;78.67
41312;BME280;27061;41.648;24.568;2022-12-18T09:36:04;86670.09;;;10.62;78.45
41312;BME280;27061;41.648;24.568;2022-12-18T09:38:33;86668.72;;;10.55;79.64
41312;BME280;27061;41.648;24.568;2022-12-18T09:46:07;86592.56;;;10.08;79.08
41312;BME280;27061;41.648;24.568;2022-12-18T09:48:39;86568.34;;;9.92;78.93
41312;BME280;27061;41.648;24.568;2022-12-18T09:51:18;86669.41;;;10.70;77.68
41312;BME280;27061;41.648;24.568;2022-12-18T09:53:56;86625.13;;;10.36;77.70
41312;BME280;27061;41.648;24.568;2022-12-18T09:56:28;86639.66;;;10.58;77.82
41312;BME280;27061;41.648;24.568;2022-12-18T09:59:00;86640.34;;;10.53;78.16
41312;BME280;27061;41.648;24.568;2022-12-18T10:01:29;86619.59;;;10.48;78.16
41312;BME280;27061;41.648;24.568;2022-12-18T10:04:09;86608.50;;;10.40;78.39
41312;BME280;27061;41.648;24.568;2022-12-18T10:09:24;86627.88;;;10.52;78.23
41312;BME280;27061;41.648;24.568;2022-12-18T10:21:03;86663.88;;;10.64;78.08
41312;BME280;27061;41.648;24.568;2022-12-18T10:23:41;86646.56;;;10.63;77.90
41312;BME280;27061;41.648;24.568;2022-12-18T10:26:14;86615.44;;;10.43;77.61
41312;BME280;27061;41.648;24.568;2022-12-18T10:28:42;86669.41;;;10.78;77.74
41312;BME280;27061;41.648;24.568;2022-12-18T10:31:21;86676.34;;;10.79;77.72
41312;BME280;27061;41.648;24.568;2022-12-18T10:33:50;86640.34;;;10.55;77.37
41312;BME280;27061;41.648;24.568;2022-12-18T10:36:18;86651.41;;;10.51;77.21
41312;BME280;27061;41.648;24.568;2022-12-18T10:38:45;86680.50;;;10.74;77.55
41312;BME280;27061;41.648;24.568;2022-12-18T10:44:16;86645.88;;;10.49;77.73
41312;BME280;27061;41.648;24.568;2022-12-18T10:46:55;86654.88;;;10.57;76.94
41312;BME280;27061;41.648;24.568;2022-12-18T10:49:42;86665.25;;;10.63;77.16
41312;BME280;27061;41.648;24.568;2022-12-18T10:52:22;86679.09;;;10.65;77.97
41312;BME280;27061;41.648;24.568;2022-12-18T10:55:02;86661.09;;;10.50;77.71
41312;BME280;27061;41.648;24.568;2022-12-18T10:57:35;86664.59;;;10.48;77.04
41312;BME280;27061;41.648;24.568;2022-12-18T11:02:48;86644.50;;;10.46;77.26
41312;BME280;27061;41.648;24.568;2022-12-18T11:05:31;86679.81;;;10.68;77.52
41312;BME280;27061;41.648;24.568;2022-12-18T11:07:59;86672.19;;;10.58;77.76
41312;BME280;27061;41.648;24.568;2022-12-18T11:10:37;86662.50;;;10.59;77.72
41312;BME280;27061;41.648;24.568;2022-12-18T11:13:25;86632.03;;;10.28;77.74
41312;BME280;27061;41.648;24.568;2022-12-18T11:15:53;86669.41;;;10.60;77.79
41312;BME280;27061;41.648;24.568;2022-12-18T11:18:32;86674.97;;;10.58;77.90
41312;BME280;27061;41.648;24.568;2022-12-18T11:21:10;86679.09;;;10.61;77.45
41312;BME280;27061;41.648;24.568;2022-12-18T11:23:51;86635.47;;;10.13;77.75
41312;BME280;27061;41.648;24.568;2022-12-18T11:26:19;86654.88;;;10.35;77.55
41312;BME280;27061;41.648;24.568;2022-12-18T11:28:52;86608.47;;;10.09;77.54
41312;BME280;27061;41.648;24.568;2022-12-18T11:31:33;86644.47;;;10.30;78.01
41312;BME280;27061;41.648;24.568;2022-12-18T11:34:11;86692.94;;;10.61;77.78
41312;BME280;27061;41.648;24.568;2022-12-18T11:36:58;86660.41;;;10.27;78.48
41312;BME280;27061;41.648;24.568;2022-12-18T11:41:57;86683.28;;;10.58;78.42
41312;BME280;27061;41.648;24.568;2022-12-18T11:45:14;86678.41;;;10.44;78.81
41312;BME280;27061;41.648;24.568;2022-12-18T11:48:13;86676.31;;;10.43;79.43
41312;BME280;27061;41.648;24.568;2022-12-18T11:50:54;86609.13;;;9.89;79.31
41312;BME280;27061;41.648;24.568;2022-12-18T11:53:24;86637.44;;;9.64;81.48
41312;BME280;27061;41.648;24.568;2022-12-18T12:01:15;86674.25;;;10.27;81.03
41312;BME280;27061;41.648;24.568;2022-12-18T12:06:40;86631.28;;;10.04;81.11
41312;BME280;27061;41.648;24.568;2022-12-18T12:09:30;86666.59;;;10.15;80.84
41312;BME280;27061;41.648;24.568;2022-12-18T12:12:26;86669.34;;;10.15;81.01
41312;BME280;27061;41.648;24.568;2022-12-18T12:15:47;86667.97;;;10.14;80.59
41312;BME280;27061;41.648;24.568;2022-12-18T12:18:00;86664.53;;;10.16;80.64
41312;BME280;27061;41.648;24.568;2022-12-18T12:32:19;86681.88;;;10.45;79.89
41312;BME280;27061;41.648;24.568;2022-12-18T12:40:18;86688.09;;;10.53;78.64
41312;BME280;27061;41.648;24.568;2022-12-18T12:43:38;86647.94;;;10.26;78.65
41312;BME280;27061;41.648;24.568;2022-12-18T12:46:17;86638.97;;;10.25;78.07
41312;BME280;27061;41.648;24.568;2022-12-18T12:48:56;86672.88;;;10.46;78.44
41312;BME280;27061;41.648;24.568;2022-12-18T12:53:56;86686.03;;;10.64;77.93
41312;BME280;27061;41.648;24.568;2022-12-18T12:56:27;86670.78;;;10.49;77.95
41312;BME280;27061;41.648;24.568;2022-12-18T13:01:59;86645.88;;;10.35;78.10
41312;BME280;27061;41.648;24.568;2022-12-18T13:13:00;86676.34;;;10.53;77.84
41312;BME280;27061;41.648;24.568;2022-12-18T13:15:45;86697.09;;;10.72;77.72
41312;BME280;27061;41.648;24.568;2022-12-18T13:18:21;86699.19;;;10.70;77.42
41312;BME280;27061;41.648;24.568;2022-12-18T13:23:33;86615.38;;;10.10;77.54
41312;BME280;27061;41.648;24.568;2022-12-18T13:31:15;86672.16;;;10.40;77.58
41312;BME280;27061;41.648;24.568;2022-12-18T13:36:55;86698.50;;;10.57;77.80
41312;BME280;27061;41.648;24.568;2022-12-18T13:39:30;86690.16;;;10.49;77.48
41312;BME280;27061;41.648;24.568;2022-12-18T13:44:57;86711.66;;;10.67;77.28
41312;BME280;27061;41.648;24.568;2022-12-18T13:47:36;86713.72;;;10.66;77.44
41312;BME280;27061;41.648;24.568;2022-12-18T13:50:32;86709.53;;;10.49;77.59
41312;BME280;27061;41.648;24.568;2022-12-18T13:53:03;86717.88;;;10.55;77.47
41312;BME280;27061;41.648;24.568;2022-12-18T13:55:31;86710.25;;;10.61;77.44
41312;BME280;27061;41.648;24.568;2022-12-18T13:58:05;86716.47;;;10.62;76.86
41312;BME280;27061;41.648;24.568;2022-12-18T14:00:33;86691.56;;;10.50;76.94
41312;BME280;27061;41.648;24.568;2022-12-18T14:03:00;86713.03;;;10.68;76.48
41312;BME280;27061;41.648;24.568;2022-12-18T14:05:33;86719.28;;;10.68;76.61
41312;BME280;27061;41.648;24.568;2022-12-18T14:08:13;86690.19;;;10.47;76.31
41312;BME280;27061;41.648;24.568;2022-12-18T14:10:50;86699.16;;;10.41;76.45
41312;BME280;27061;41.648;24.568;2022-12-18T14:13:31;86710.94;;;10.48;76.89
41312;BME280;27061;41.648;24.568;2022-12-18T14:16:01;86734.50;;;10.71;76.33
41312;BME280;27061;41.648;24.568;2022-12-18T14:18:38;86738.66;;;10.66;75.87
41312;BME280;27061;41.648;24.568;2022-12-18T14:21:18;86670.75;;;10.16;75.85
41312;BME280;27061;41.648;24.568;2022-12-18T14:23:45;86751.09;;;10.61;76.05
41312;BME280;27061;41.648;24.568;2022-12-18T14:26:27;86697.03;;;10.13;76.05
41312;BME280;27061;41.648;24.568;2022-12-18T14:28:58;86749.03;;;10.61;75.66
41312;BME280;27061;41.648;24.568;2022-12-18T14:31:29;86677.59;;;9.85;75.59
41312;BME280;27061;41.648;24.568;2022-12-18T14:33:57;86755.22;;;10.50;75.82
41312;BME280;27061;41.648;24.568;2022-12-18T14:36:26;86762.16;;;10.51;75.28
41312;BME280;27061;41.648;24.568;2022-12-18T14:38:57;86739.97;;;10.33;75.30
41312;BME280;27061;41.648;24.568;2022-12-18T14:41:25;86721.25;;;10.17;74.86
41312;BME280;27061;41.648;24.568;2022-12-18T14:43:54;86727.47;;;10.15;75.26
41312;BME280;27061;41.648;24.568;2022-12-18T14:46:44;86740.66;;;10.27;75.14
41312;BME280;27061;41.648;24.568;2022-12-18T14:49:33;86751.03;;;10.31;75.96
41312;BME280;27061;41.648;24.568;2022-12-18T14:52:13;86687.25;;;9.80;76.25
41312;BME280;27061;41.648;24.568;2022-12-18T14:54:46;86727.47;;;10.13;76.46
41312;BME280;27061;41.648;24.568;2022-12-18T14:57:25;86701.13;;;9.94;76.48